Time;durP1;ratioP1;P1;durP2;ratioP2;P2;SDS_P1;SDS_P2;PMS_P1;PMS_P2;Temp;Humidity;BMP_temperature;BMP_pressure;BME280_temperature;BME280_humidity;BME280_pressure;Samples;Min_cycle;Max_cycle;Signal;HPM_P1;HPM_P2
2021/07/25 00:00:41;;;;;;;8.20;4.22;;;18.30;85.50;;;;;;5008086;28;20022;-78
2021/07/25 00:03:08;;;;;;;6.43;4.07;;;18.30;85.30;;;;;;5009356;28;20033;-79
2021/07/25 00:05:33;;;;;;;7.30;3.95;;;18.30;84.80;;;;;;5007409;28;20022;-79
2021/07/25 00:07:59;;;;;;;4.88;3.20;;;18.30;84.50;;;;;;5007194;28;20517;-78
2021/07/25 00:10:25;;;;;;;5.45;3.15;;;18.20;83.90;;;;;;5009565;28;20069;-79
2021/07/25 00:12:50;;;;;;;4.05;2.88;;;18.00;83.80;;;;;;5013000;28;20029;-78
2021/07/25 00:15:16;;;;;;;5.55;2.95;;;17.90;83.70;;;;;;5012007;28;20026;-79
2021/07/25 00:17:42;;;;;;;5.90;2.90;;;17.90;84.20;;;;;;5013437;28;20112;-78
2021/07/25 00:20:08;;;;;;;6.55;3.13;;;17.90;84.80;;;;;;5012826;28;20030;-78
2021/07/25 00:22:34;;;;;;;3.92;2.75;;;17.90;84.60;;;;;;5013579;28;20029;-78
2021/07/25 00:25:09;;;;;;;4.22;2.50;;;17.90;84.40;;;;;;5012952;28;20026;-79
2021/07/25 00:27:41;;;;;;;3.97;2.40;;;17.80;84.30;;;;;;5012857;28;20022;-78
2021/07/25 00:30:09;;;;;;;4.00;2.30;;;17.80;85.10;;;;;;5013084;28;20501;-78
2021/07/25 00:32:35;;;;;;;4.78;2.72;;;17.70;85.50;;;;;;5012535;28;20281;-79
2021/07/25 00:35:00;;;;;;;3.72;2.42;;;17.80;85.10;;;;;;5011615;28;20019;-78
2021/07/25 00:37:26;;;;;;;4.00;2.17;;;17.80;85.00;;;;;;5013850;28;20033;-78
2021/07/25 00:39:51;;;;;;;5.28;2.50;;;17.90;84.80;;;;;;5022978;28;20486;-79
2021/07/25 00:42:17;;;;;;;5.22;2.80;;;17.90;84.80;;;;;;5015053;28;20505;-79
2021/07/25 00:44:43;;;;;;;4.53;2.58;;;18.00;84.80;;;;;;5011218;28;20060;-80
2021/07/25 00:47:08;;;;;;;3.85;2.50;;;18.00;84.70;;;;;;5010828;28;20037;-79
2021/07/25 00:49:35;;;;;;;3.47;2.70;;;18.00;84.60;;;;;;5011733;28;20030;-79
2021/07/25 00:52:04;;;;;;;5.70;3.10;;;18.00;84.60;;;;;;5013139;28;20037;-78
2021/07/25 00:54:29;;;;;;;4.78;3.25;;;18.00;84.50;;;;;;5012684;28;20052;-78
2021/07/25 00:56:55;;;;;;;5.18;2.65;;;18.10;84.50;;;;;;5012349;28;20481;-79
2021/07/25 00:59:21;;;;;;;5.57;3.25;;;18.10;84.50;;;;;;5011117;28;20032;-78
2021/07/25 01:01:49;;;;;;;6.47;3.08;;;18.10;84.60;;;;;;5010766;28;20034;-78
2021/07/25 01:04:56;;;;;;;3.83;2.70;;;18.10;84.30;;;;;;5014574;28;20025;-78
2021/07/25 01:07:40;;;;;;;3.65;2.90;;;18.10;84.20;;;;;;5005108;28;20042;-78
2021/07/25 01:10:28;;;;;;;2.92;2.58;;;18.10;83.90;;;;;;5012754;28;20117;-78
2021/07/25 01:13:18;;;;;;;4.05;2.50;;;18.10;84.00;;;;;;5011718;28;20026;-78
2021/07/25 01:15:45;;;;;;;4.45;2.70;;;18.10;84.10;;;;;;5010539;28;20045;-80
2021/07/25 01:18:10;;;;;;;4.97;2.38;;;18.10;84.10;;;;;;5010915;28;20029;-78
2021/07/25 01:20:36;;;;;;;5.30;2.47;;;18.10;84.20;;;;;;5010880;28;20105;-79
2021/07/25 01:23:02;;;;;;;5.13;2.50;;;18.00;83.90;;;;;;5009271;28;20022;-79
2021/07/25 01:25:29;;;;;;;4.97;2.40;;;18.00;85.20;;;;;;5012747;28;20026;-80
2021/07/25 01:28:03;;;;;;;5.00;2.70;;;18.00;85.00;;;;;;5011516;28;20034;-79
2021/07/25 01:30:38;;;;;;;5.30;2.65;;;18.00;83.90;;;;;;5011368;28;20038;-78
2021/07/25 01:33:10;;;;;;;4.43;2.38;;;18.00;83.90;;;;;;5011878;28;20395;-78
2021/07/25 01:35:36;;;;;;;4.65;2.70;;;17.90;84.00;;;;;;5011790;28;20042;-79
2021/07/25 01:38:02;;;;;;;5.28;2.42;;;18.00;84.20;;;;;;5011820;28;20124;-78
2021/07/25 01:40:28;;;;;;;3.88;2.30;;;17.90;84.10;;;;;;5025569;28;20105;-78
2021/07/25 01:42:55;;;;;;;3.92;3.22;;;18.00;84.20;;;;;;5011641;28;20506;-78
2021/07/25 01:45:21;;;;;;;3.45;2.30;;;18.00;84.30;;;;;;5009461;28;20018;-78
2021/07/25 01:47:47;;;;;;;3.13;2.33;;;17.90;84.10;;;;;;5006040;28;20075;-79
2021/07/25 01:50:14;;;;;;;4.25;2.65;;;17.90;84.30;;;;;;5009189;28;20030;-80
2021/07/25 01:52:39;;;;;;;7.22;2.72;;;17.90;84.20;;;;;;5010294;28;20042;-78
2021/07/25 01:55:06;;;;;;;3.40;2.38;;;17.90;84.20;;;;;;5013558;28;20038;-79
2021/07/25 01:57:32;;;;;;;4.13;2.53;;;17.90;84.30;;;;;;5005936;28;20041;-79
2021/07/25 01:59:58;;;;;;;5.30;2.53;;;17.90;83.90;;;;;;5009692;28;20506;-79
2021/07/25 02:02:24;;;;;;;4.50;2.33;;;17.80;84.10;;;;;;5009902;28;20025;-79
2021/07/25 02:04:49;;;;;;;5.00;2.28;;;17.80;84.40;;;;;;5009671;28;20022;-78
2021/07/25 02:07:15;;;;;;;3.53;2.20;;;17.80;84.20;;;;;;5011707;28;20037;-81
2021/07/25 02:09:41;;;;;;;4.03;2.30;;;17.80;84.50;;;;;;5010534;28;20179;-79
2021/07/25 02:12:10;;;;;;;4.00;2.30;;;17.80;84.40;;;;;;5009606;28;20028;-79
2021/07/25 02:14:37;;;;;;;4.97;2.40;;;17.80;84.40;;;;;;5008830;28;20026;-78
2021/07/25 02:17:04;;;;;;;4.50;2.10;;;17.70;84.60;;;;;;5010821;28;20045;-79
2021/07/25 02:19:30;;;;;;;3.70;2.08;;;17.70;84.60;;;;;;5010670;28;20037;-79
2021/07/25 02:21:56;;;;;;;4.60;2.08;;;17.60;85.00;;;;;;5010501;28;20030;-79
2021/07/25 02:24:22;;;;;;;4.00;2.25;;;17.60;85.00;;;;;;5009253;28;20660;-79
2021/07/25 02:26:49;;;;;;;5.00;2.47;;;17.50;85.20;;;;;;5010906;28;20454;-79
2021/07/25 02:29:15;;;;;;;3.65;2.17;;;17.50;85.30;;;;;;5010603;28;20038;-79
2021/07/25 02:31:41;;;;;;;3.22;2.03;;;17.60;85.30;;;;;;5008466;28;20591;-79
2021/07/25 02:34:07;;;;;;;3.92;2.25;;;17.50;85.40;;;;;;5009954;28;20030;-79
2021/07/25 02:36:32;;;;;;;3.30;2.10;;;17.60;85.70;;;;;;5009245;28;20527;-78
2021/07/25 02:38:58;;;;;;;3.67;2.00;;;17.50;86.00;;;;;;5012348;28;20532;-78
2021/07/25 02:41:24;;;;;;;4.28;1.90;;;17.20;88.00;;;;;;5021805;28;20045;-78
2021/07/25 02:43:49;;;;;;;3.80;2.10;;;16.90;89.30;;;;;;5009097;28;20061;-78
2021/07/25 02:46:15;;;;;;;3.72;1.98;;;16.80;90.30;;;;;;5011440;28;20018;-79
2021/07/25 02:48:41;;;;;;;4.40;2.30;;;16.70;90.10;;;;;;5010511;28;20042;-78
2021/07/25 02:51:07;;;;;;;4.35;2.20;;;16.70;90.40;;;;;;5010714;28;20037;-79
2021/07/25 02:53:32;;;;;;;4.07;2.42;;;16.70;90.30;;;;;;5008777;28;20029;-79
2021/07/25 02:55:58;;;;;;;3.92;1.95;;;16.60;90.90;;;;;;5007921;28;20032;-78
2021/07/25 02:58:23;;;;;;;5.45;2.20;;;16.60;90.30;;;;;;5011662;28;20025;-79
2021/07/25 03:00:49;;;;;;;5.25;2.10;;;16.60;90.60;;;;;;5009583;28;20026;-79
2021/07/25 03:03:15;;;;;;;3.13;2.22;;;16.60;90.30;;;;;;5006951;28;20026;-78
2021/07/25 03:05:41;;;;;;;3.90;2.10;;;16.60;90.30;;;;;;5008894;28;20030;-79
2021/07/25 03:08:06;;;;;;;2.40;1.92;;;16.70;90.30;;;;;;5008728;28;20096;-79
2021/07/25 03:10:32;;;;;;;3.47;2.17;;;16.70;90.30;;;;;;5011135;28;20049;-79
2021/07/25 03:12:57;;;;;;;2.78;2.05;;;16.70;90.90;;;;;;5008267;28;20101;-80
2021/07/25 03:15:23;;;;;;;4.07;2.17;;;16.80;90.20;;;;;;5010248;28;20041;-79
2021/07/25 03:17:49;;;;;;;6.47;1.98;;;16.80;90.10;;;;;;5002584;28;20072;-79
2021/07/25 03:20:15;;;;;;;5.55;2.60;;;16.80;90.10;;;;;;5008744;28;20061;-79
2021/07/25 03:22:41;;;;;;;3.88;1.90;;;16.80;90.30;;;;;;5010199;28;20570;-79
2021/07/25 03:25:07;;;;;;;5.25;2.42;;;16.80;90.00;;;;;;5012167;28;20491;-79
2021/07/25 03:27:33;;;;;;;4.68;1.88;;;16.90;90.00;;;;;;5008304;28;20117;-78
2021/07/25 03:29:59;;;;;;;3.38;2.00;;;16.90;89.80;;;;;;5008341;28;20117;-78
2021/07/25 03:32:24;;;;;;;3.45;2.10;;;16.90;90.00;;;;;;5010036;28;20121;-79
2021/07/25 03:34:50;;;;;;;3.17;1.90;;;16.90;90.00;;;;;;5008601;28;20546;-78
2021/07/25 03:37:17;;;;;;;3.35;2.00;;;16.90;90.00;;;;;;5008094;28;20101;-79
2021/07/25 03:39:45;;;;;;;4.03;1.75;;;16.90;89.80;;;;;;5019180;28;20506;-78
2021/07/25 03:42:12;;;;;;;4.25;2.33;;;16.90;89.80;;;;;;5012471;28;20018;-78
2021/07/25 03:44:38;;;;;;;3.08;2.20;;;17.00;90.00;;;;;;5009517;28;20036;-78
2021/07/25 03:47:04;;;;;;;3.40;2.47;;;17.00;90.10;;;;;;5010226;28;20097;-80
2021/07/25 03:49:29;;;;;;;3.17;2.55;;;17.00;90.00;;;;;;5013667;28;20561;-78
2021/07/25 03:51:56;;;;;;;4.35;2.85;;;17.00;90.20;;;;;;5013549;28;20018;-79
2021/07/25 03:54:22;;;;;;;3.80;2.70;;;16.90;90.10;;;;;;5013704;28;20399;-79
2021/07/25 03:56:47;;;;;;;8.00;3.60;;;17.00;90.10;;;;;;5013323;28;20018;-78
2021/07/25 03:59:13;;;;;;;4.63;3.38;;;16.90;90.10;;;;;;5013576;28;20037;-78
2021/07/25 04:01:39;;;;;;;5.13;3.70;;;16.90;90.40;;;;;;5013822;28;20022;-82
2021/07/25 04:04:04;;;;;;;5.32;3.83;;;16.90;90.00;;;;;;5014889;28;20494;-78
2021/07/25 04:06:30;;;;;;;7.05;4.00;;;16.90;90.20;;;;;;5012377;28;20391;-79
2021/07/25 04:08:57;;;;;;;5.75;3.58;;;16.90;90.20;;;;;;5012781;28;20045;-77
2021/07/25 04:11:22;;;;;;;7.32;4.00;;;17.00;90.20;;;;;;5012550;28;20065;-78
2021/07/25 04:13:48;;;;;;;7.05;4.25;;;16.90;89.90;;;;;;5012331;28;20088;-78
2021/07/25 04:16:14;;;;;;;6.03;4.10;;;17.00;90.20;;;;;;5013479;28;20486;-79
2021/07/25 04:18:40;;;;;;;10.77;5.43;;;17.00;90.20;;;;;;5006200;28;20048;-78
2021/07/25 04:21:06;;;;;;;7.38;4.80;;;17.00;90.10;;;;;;5011222;28;20100;-78
2021/07/25 04:23:32;;;;;;;7.72;4.78;;;17.00;90.40;;;;;;5012755;28;20486;-78
2021/07/25 04:25:58;;;;;;;7.20;5.13;;;17.00;90.20;;;;;;5012342;28;20029;-78
2021/07/25 04:28:24;;;;;;;8.27;5.30;;;17.00;90.00;;;;;;5013938;28;20046;-78
2021/07/25 04:30:50;;;;;;;9.73;5.35;;;17.00;90.10;;;;;;5011739;28;20038;-79
2021/07/25 04:33:17;;;;;;;8.52;5.57;;;17.00;90.00;;;;;;5010489;28;20045;-79
2021/07/25 04:35:43;;;;;;;9.82;5.47;;;17.10;90.00;;;;;;5012943;28;20030;-78
2021/07/25 04:38:09;;;;;;;8.68;5.68;;;17.00;89.90;;;;;;5010696;28;20038;-79
2021/07/25 04:40:35;;;;;;;10.05;5.22;;;17.00;90.00;;;;;;5026461;28;20033;-79
2021/07/25 04:43:03;;;;;;;8.40;4.95;;;17.00;90.00;;;;;;5011841;28;20018;-79
2021/07/25 04:45:33;;;;;;;8.05;4.70;;;17.00;89.50;;;;;;5010639;28;20030;-79
2021/07/25 04:48:08;;;;;;;8.05;4.70;;;17.00;89.50;;;;;;5011569;28;20034;-80
2021/07/25 04:50:37;;;;;;;6.68;4.50;;;17.00;89.10;;;;;;5003856;28;20088;-78
2021/07/25 04:53:05;;;;;;;6.45;4.82;;;17.00;89.60;;;;;;5011128;28;20030;-78
2021/07/25 04:55:35;;;;;;;8.25;4.97;;;17.00;89.50;;;;;;5012401;28;20537;-79
2021/07/25 04:58:06;;;;;;;8.52;4.53;;;17.00;89.60;;;;;;5011915;28;20026;-79
2021/07/25 05:00:37;;;;;;;5.78;4.00;;;17.00;89.40;;;;;;5011515;28;20034;-79
2021/07/25 05:03:05;;;;;;;8.40;4.50;;;17.00;89.40;;;;;;5010595;28;20459;-79
2021/07/25 05:05:33;;;;;;;9.05;4.97;;;17.00;89.10;;;;;;5010781;28;20030;-78
2021/07/25 05:08:01;;;;;;;8.07;4.30;;;17.00;88.80;;;;;;5009476;28;20117;-79
2021/07/25 05:10:28;;;;;;;8.07;4.50;;;17.00;89.60;;;;;;5011929;28;20037;-79
2021/07/25 05:13:10;;;;;;;8.70;4.88;;;17.10;89.20;;;;;;5012655;28;20100;-79
2021/07/25 05:15:45;;;;;;;11.07;5.28;;;17.10;89.00;;;;;;5010332;28;20495;-79
2021/07/25 05:18:28;;;;;;;10.40;5.00;;;17.10;89.20;;;;;;5010530;28;20032;-79
2021/07/25 05:21:16;;;;;;;9.15;5.38;;;17.20;89.10;;;;;;5010521;28;20065;-78
2021/07/25 05:23:47;;;;;;;10.38;4.80;;;17.20;89.20;;;;;;5009951;28;20114;-78
2021/07/25 05:26:14;;;;;;;8.80;4.82;;;17.30;89.40;;;;;;5011051;28;20441;-79
2021/07/25 05:28:42;;;;;;;10.05;5.20;;;17.30;89.50;;;;;;5010441;28;20080;-79
2021/07/25 05:31:08;;;;;;;7.30;4.90;;;17.30;88.30;;;;;;5012468;28;20124;-78
2021/07/25 05:33:35;;;;;;;9.65;5.82;;;17.30;89.00;;;;;;5011142;28;20030;-79
2021/07/25 05:36:01;;;;;;;7.85;5.25;;;17.30;88.90;;;;;;5008537;28;20054;-79
2021/07/25 05:38:27;;;;;;;9.07;5.28;;;17.40;89.90;;;;;;5009382;28;20041;-78
2021/07/25 05:40:53;;;;;;;7.70;5.10;;;17.40;88.90;;;;;;5023656;28;20104;-78
2021/07/25 05:43:18;;;;;;;7.70;5.13;;;17.40;89.10;;;;;;5012020;28;20105;-80
2021/07/25 05:45:44;;;;;;;9.85;4.93;;;17.40;89.00;;;;;;5009530;28;20034;-80
2021/07/25 05:48:10;;;;;;;9.77;5.82;;;17.40;89.20;;;;;;5009601;28;20049;-79
2021/07/25 05:50:36;;;;;;;10.82;5.78;;;17.50;89.00;;;;;;5009989;28;20390;-80
2021/07/25 05:53:02;;;;;;;9.82;5.10;;;17.50;88.90;;;;;;5009356;28;20030;-79
2021/07/25 05:55:33;;;;;;;10.30;5.70;;;17.50;88.50;;;;;;5011948;28;20030;-79
2021/07/25 05:58:00;;;;;;;8.90;5.55;;;17.50;88.60;;;;;;5009291;28;20022;-79
2021/07/25 06:00:25;;;;;;;8.18;4.90;;;17.50;89.50;;;;;;5010952;28;20371;-79
2021/07/25 06:02:56;;;;;;;9.43;5.00;;;17.60;88.80;;;;;;5010887;28;20033;-78
2021/07/25 06:05:23;;;;;;;9.18;5.32;;;17.60;88.40;;;;;;5009871;28;20486;-77
2021/07/25 06:07:49;;;;;;;9.27;5.22;;;17.60;87.90;;;;;;4995011;28;20065;-78
2021/07/25 06:10:15;;;;;;;9.52;5.30;;;17.60;88.50;;;;;;5012110;28;20069;-79
2021/07/25 06:12:41;;;;;;;6.57;4.63;;;17.70;88.50;;;;;;5008196;28;20033;-78
2021/07/25 06:15:07;;;;;;;7.88;5.20;;;17.80;89.00;;;;;;5010439;28;20030;-79
2021/07/25 06:17:33;;;;;;;8.60;5.30;;;17.90;88.30;;;;;;5009080;28;20148;-79
2021/07/25 06:19:58;;;;;;;7.80;5.10;;;17.90;87.70;;;;;;4998300;28;20121;-79
2021/07/25 06:22:24;;;;;;;9.77;5.03;;;17.90;87.90;;;;;;5009648;28;20026;-79
2021/07/25 06:24:49;;;;;;;10.27;5.25;;;17.90;87.40;;;;;;5009058;28;20034;-79
2021/07/25 06:27:15;;;;;;;8.90;4.95;;;17.90;87.20;;;;;;5010384;28;20037;-79
2021/07/25 06:29:41;;;;;;;6.95;3.97;;;17.90;87.20;;;;;;5008884;28;20041;-79
2021/07/25 06:32:08;;;;;;;8.10;4.20;;;17.90;87.60;;;;;;5009106;28;20050;-79
2021/07/25 06:34:34;;;;;;;7.07;4.38;;;18.00;87.60;;;;;;5008776;28;20096;-79
2021/07/25 06:37:00;;;;;;;5.95;3.72;;;18.00;86.70;;;;;;5007054;28;20057;-77
2021/07/25 06:39:26;;;;;;;7.10;3.85;;;18.00;87.40;;;;;;5014960;28;20060;-77
2021/07/25 06:41:51;;;;;;;7.07;4.18;;;18.10;88.20;;;;;;4996306;28;20022;-78
2021/07/25 06:44:17;;;;;;;7.55;4.15;;;18.20;87.20;;;;;;4997243;28;20112;-78
2021/07/25 06:46:43;;;;;;;6.25;3.90;;;18.30;86.90;;;;;;5009671;28;23896;-77
2021/07/25 06:49:08;;;;;;;7.57;3.90;;;18.20;86.20;;;;;;5010853;28;20037;-78
2021/07/25 06:51:36;;;;;;;8.77;4.63;;;18.10;86.20;;;;;;5009341;28;20036;-78
2021/07/25 06:54:01;;;;;;;7.70;4.03;;;18.10;86.40;;;;;;5010171;28;20109;-78
2021/07/25 06:56:27;;;;;;;7.10;3.78;;;18.10;87.00;;;;;;5009475;28;20542;-80
2021/07/25 06:58:53;;;;;;;5.55;3.80;;;18.10;87.30;;;;;;5009986;28;20034;-78
2021/07/25 07:01:18;;;;;;;7.32;4.43;;;18.20;86.60;;;;;;5011430;28;20022;-78
2021/07/25 07:03:44;;;;;;;8.93;4.10;;;18.20;86.90;;;;;;5008668;28;20438;-78
2021/07/25 07:06:09;;;;;;;7.72;3.85;;;18.20;87.00;;;;;;5008083;28;20026;-78
2021/07/25 07:08:35;;;;;;;8.52;4.40;;;18.20;86.70;;;;;;5009936;28;20030;-78
2021/07/25 07:11:01;;;;;;;5.65;3.67;;;18.30;87.70;;;;;;5008289;28;20037;-78
2021/07/25 07:13:26;;;;;;;6.57;4.00;;;18.20;86.40;;;;;;5010215;28;20502;-78
2021/07/25 07:15:52;;;;;;;7.75;4.20;;;18.20;86.20;;;;;;5009903;28;20494;-78
2021/07/25 07:18:19;;;;;;;6.25;3.80;;;18.30;86.80;;;;;;5008910;28;20109;-78
2021/07/25 07:20:45;;;;;;;7.38;4.70;;;18.40;86.70;;;;;;5005275;28;20506;-78
2021/07/25 07:23:13;;;;;;;6.20;4.30;;;18.50;86.30;;;;;;5008844;28;20487;-78
2021/07/25 07:25:47;;;;;;;5.78;4.03;;;18.50;85.60;;;;;;4997578;28;20058;-78
2021/07/25 07:28:14;;;;;;;7.25;3.65;;;18.50;86.40;;;;;;5010067;28;20391;-78
2021/07/25 07:30:40;;;;;;;8.07;3.85;;;18.60;86.60;;;;;;5009319;28;20046;-78
2021/07/25 07:33:14;;;;;;;7.57;4.13;;;18.70;86.10;;;;;;5007607;28;20569;-79
2021/07/25 07:35:40;;;;;;;5.80;3.80;;;18.80;85.60;;;;;;5007655;28;20562;-78
2021/07/25 07:38:06;;;;;;;5.90;3.92;;;18.90;85.90;;;;;;5007526;28;20106;-78
2021/07/25 07:40:32;;;;;;;5.68;3.88;;;19.10;85.00;;;;;;5024268;28;20433;-78
2021/07/25 07:42:58;;;;;;;6.18;3.67;;;19.20;84.90;;;;;;5007859;28;20092;-78
2021/07/25 07:45:25;;;;;;;6.57;4.13;;;19.40;85.00;;;;;;5008662;28;20030;-78
2021/07/25 07:47:51;;;;;;;5.03;3.42;;;19.40;83.70;;;;;;5007366;28;20522;-78
2021/07/25 07:50:18;;;;;;;8.43;4.28;;;19.30;82.80;;;;;;5009161;28;20022;-79
2021/07/25 07:52:44;;;;;;;7.97;3.72;;;19.30;83.40;;;;;;5009000;28;20046;-78
2021/07/25 07:55:10;;;;;;;6.72;3.63;;;19.20;83.10;;;;;;5010764;28;20101;-78
2021/07/25 07:57:36;;;;;;;5.18;3.95;;;19.20;83.10;;;;;;5007685;28;20022;-78
2021/07/25 08:00:04;;;;;;;6.47;3.70;;;19.20;83.40;;;;;;5009047;28;20556;-78
2021/07/25 08:02:29;;;;;;;5.63;3.85;;;19.20;83.20;;;;;;5006428;28;20030;-78
2021/07/25 08:04:57;;;;;;;7.03;3.92;;;19.30;83.40;;;;;;5007987;28;20072;-78
2021/07/25 08:07:23;;;;;;;5.70;3.45;;;19.30;82.70;;;;;;4997829;28;20041;-79
2021/07/25 08:09:49;;;;;;;5.47;3.72;;;19.20;82.20;;;;;;4996209;28;20030;-77
2021/07/25 08:12:14;;;;;;;4.50;3.55;;;19.20;82.40;;;;;;4997421;28;20072;-78
2021/07/25 08:14:40;;;;;;;4.90;3.38;;;19.20;82.20;;;;;;4996637;28;20525;-75
2021/07/25 08:17:06;;;;;;;6.53;3.30;;;19.40;84.50;;;;;;5007407;28;20407;-77
2021/07/25 08:19:31;;;;;;;4.68;3.10;;;19.50;82.40;;;;;;5003398;28;20108;-76
2021/07/25 08:21:57;;;;;;;6.90;3.63;;;19.60;83.20;;;;;;5007725;28;20022;-76
2021/07/25 08:24:22;;;;;;;5.82;3.45;;;19.60;81.90;;;;;;4997954;28;20030;-77
2021/07/25 08:26:48;;;;;;;8.75;3.53;;;19.70;81.80;;;;;;4993007;28;20486;-75
2021/07/25 08:29:14;;;;;;;6.75;3.83;;;19.70;80.20;;;;;;4996961;28;20116;-75
2021/07/25 08:31:39;;;;;;;5.72;3.42;;;19.70;81.90;;;;;;4997441;28;20046;-75
2021/07/25 08:34:05;;;;;;;5.30;3.53;;;19.60;79.00;;;;;;4998652;28;20030;-75
2021/07/25 08:36:30;;;;;;;6.03;3.60;;;19.40;79.60;;;;;;4999831;28;20372;-75
2021/07/25 08:38:56;;;;;;;7.07;4.30;;;19.40;81.00;;;;;;5000583;28;20113;-77
2021/07/25 08:41:40;;;;;;;7.13;4.00;;;19.40;79.80;;;;;;4996156;28;20065;-75
2021/07/25 08:44:36;;;;;;;7.13;3.95;;;19.50;79.80;;;;;;4998266;28;20506;-74
2021/07/25 08:47:07;;;;;;;5.72;3.78;;;19.70;80.50;;;;;;4995988;28;20018;-76
2021/07/25 08:49:48;;;;;;;6.00;4.10;;;19.80;79.40;;;;;;4997272;28;20038;-76
2021/07/25 08:52:19;;;;;;;7.90;4.00;;;19.80;78.80;;;;;;5010321;28;20491;-81
2021/07/25 08:54:45;;;;;;;6.00;3.70;;;19.90;79.70;;;;;;5013258;28;20052;-79
2021/07/25 08:57:19;;;;;;;5.85;3.83;;;20.10;80.50;;;;;;5003539;28;20026;-77
2021/07/25 08:59:49;;;;;;;5.60;3.47;;;20.40;79.40;;;;;;4996680;28;20029;-79
2021/07/25 09:02:27;;;;;;;4.50;3.35;;;20.60;80.00;;;;;;5003503;28;20030;-82
2021/07/25 09:04:54;;;;;;;5.47;3.92;;;20.80;80.20;;;;;;4997455;28;20030;-77
2021/07/25 09:07:22;;;;;;;4.65;3.47;;;20.90;75.30;;;;;;5004903;28;20116;-77
2021/07/25 09:10:01;;;;;;;5.07;3.65;;;20.70;75.10;;;;;;5008227;28;20042;-76
2021/07/25 09:12:27;;;;;;;4.55;3.10;;;20.60;76.30;;;;;;5004739;28;20433;-78
2021/07/25 09:14:56;;;;;;;4.45;2.88;;;20.70;77.30;;;;;;5001611;28;20027;-76
2021/07/25 09:17:23;;;;;;;5.35;3.03;;;20.80;76.70;;;;;;5010324;28;20033;-75
2021/07/25 09:20:08;;;;;;;5.00;3.38;;;20.80;75.70;;;;;;5011247;28;20030;-77
2021/07/25 09:22:34;;;;;;;6.25;3.35;;;20.70;76.20;;;;;;5005352;28;20035;-78
2021/07/25 09:25:00;;;;;;;5.97;3.35;;;20.70;75.00;;;;;;5006347;28;20022;-79
2021/07/25 09:27:25;;;;;;;5.43;3.58;;;20.70;76.20;;;;;;5010086;28;20041;-84
2021/07/25 09:29:51;;;;;;;5.05;3.15;;;20.70;75.40;;;;;;5002787;28;20044;-84
2021/07/25 09:32:18;;;;;;;5.47;3.55;;;20.80;76.00;;;;;;5008159;28;20042;-82
2021/07/25 09:34:51;;;;;;;4.65;3.42;;;20.80;75.30;;;;;;5010636;28;20034;-82
2021/07/25 09:37:21;;;;;;;5.40;3.67;;;20.80;75.10;;;;;;5001537;28;20096;-80
2021/07/25 09:39:51;;;;;;;4.90;3.58;;;20.80;76.10;;;;;;5018117;28;20045;-80
2021/07/25 09:42:29;;;;;;;6.10;3.88;;;21.00;76.00;;;;;;5013896;28;20604;-79
2021/07/25 09:44:58;;;;;;;4.53;3.67;;;21.10;73.70;;;;;;5008921;28;20018;-80
2021/07/25 09:47:43;;;;;;;6.40;4.03;;;21.00;73.80;;;;;;5011661;28;20034;-80
2021/07/25 09:50:09;;;;;;;5.50;3.80;;;21.00;73.50;;;;;;5006379;28;20030;-82
2021/07/25 09:52:40;;;;;;;5.97;3.92;;;21.10;73.50;;;;;;5009720;28;20056;-80
2021/07/25 09:55:08;;;;;;;6.38;3.92;;;21.10;73.60;;;;;;5008490;28;20509;-79
2021/07/25 09:57:35;;;;;;;5.25;3.92;;;21.10;72.80;;;;;;5009911;28;20038;-81
2021/07/25 10:00:10;;;;;;;5.25;4.35;;;21.10;73.10;;;;;;5008463;28;20025;-80
2021/07/25 10:02:45;;;;;;;6.20;4.30;;;21.10;72.60;;;;;;5005572;28;20138;-80
2021/07/25 10:05:14;;;;;;;5.20;4.22;;;21.20;72.70;;;;;;4993536;28;20026;-84
2021/07/25 10:07:45;;;;;;;5.30;4.63;;;21.30;73.50;;;;;;5019675;28;20115;-84
2021/07/25 10:10:15;;;;;;;9.00;4.80;;;21.40;72.10;;;;;;5017104;28;20048;-74
2021/07/25 10:12:43;;;;;;;6.15;4.38;;;21.40;71.60;;;;;;5009520;28;20026;-78
2021/07/25 10:15:17;;;;;;;5.90;4.18;;;21.40;71.80;;;;;;5009590;28;20030;-79
2021/07/25 10:17:44;;;;;;;5.95;4.35;;;21.40;71.50;;;;;;5009555;28;20037;-78
2021/07/25 10:20:12;;;;;;;5.50;4.22;;;21.40;72.50;;;;;;5009248;28;20030;-75
2021/07/25 10:22:40;;;;;;;7.80;5.07;;;21.40;73.30;;;;;;5011743;28;20021;-79
2021/07/25 10:25:08;;;;;;;6.82;5.18;;;21.60;72.20;;;;;;5012170;28;20026;-76
2021/07/25 10:27:35;;;;;;;6.97;5.20;;;21.90;71.50;;;;;;5009150;28;20029;-78
2021/07/25 10:30:09;;;;;;;5.90;4.47;;;21.80;71.00;;;;;;5009164;28;20537;-78
2021/07/25 10:32:37;;;;;;;6.38;5.20;;;21.90;72.20;;;;;;5010643;28;20088;-79
2021/07/25 10:35:07;;;;;;;5.60;5.00;;;21.90;70.20;;;;;;5008527;28;20034;-85
2021/07/25 10:37:36;;;;;;;5.25;4.50;;;21.80;69.70;;;;;;5011399;28;20022;-87
2021/07/25 10:40:03;;;;;;;6.00;4.47;;;22.00;71.60;;;;;;5022278;28;20394;-85
2021/07/25 10:42:32;;;;;;;5.40;4.43;;;22.20;70.10;;;;;;5000338;28;20088;-79
2021/07/25 10:44:58;;;;;;;5.40;4.47;;;22.20;69.10;;;;;;5002093;28;20022;-77
2021/07/25 10:47:28;;;;;;;7.00;4.93;;;22.10;68.80;;;;;;5009154;28;20129;-76
2021/07/25 10:49:59;;;;;;;6.72;4.80;;;22.10;69.10;;;;;;4999753;28;20041;-77
2021/07/25 10:52:25;;;;;;;5.68;4.72;;;22.00;68.20;;;;;;5011697;28;20018;-80
2021/07/25 10:54:51;;;;;;;7.25;4.78;;;21.70;67.30;;;;;;5011098;28;20034;-78
2021/07/25 10:57:17;;;;;;;6.50;4.80;;;21.60;68.80;;;;;;5010113;28;20018;-79
2021/07/25 10:59:55;;;;;;;6.90;4.80;;;21.40;69.70;;;;;;5008641;28;20631;-76
2021/07/25 11:02:24;;;;;;;5.85;5.07;;;21.20;69.50;;;;;;5008598;28;20017;-82
2021/07/25 11:04:56;;;;;;;5.35;4.80;;;21.00;70.40;;;;;;5007434;28;20026;-80
2021/07/25 11:07:24;;;;;;;6.57;4.60;;;20.90;71.70;;;;;;4994829;28;20011;-84
2021/07/25 11:10:02;;;;;;;7.15;4.80;;;20.90;72.20;;;;;;4997392;28;20044;-76
2021/07/25 11:12:56;;;;;;;6.30;5.10;;;21.00;71.70;;;;;;5000185;28;20041;-76
2021/07/25 11:15:33;;;;;;;;;;;21.10;71.70;;;;;;5008931;28;20056;-80
2021/07/25 11:17:59;;;;;;;6.35;4.80;;;21.30;72.00;;;;;;5003550;28;19910;-76
2021/07/25 11:20:59;;;;;;;7.45;4.95;;;21.40;71.80;;;;;;5009822;28;20029;-75
2021/07/25 11:23:24;;;;;;;6.40;4.82;;;21.50;72.60;;;;;;5007424;28;20513;-76
2021/07/25 11:25:52;;;;;;;6.47;5.03;;;21.70;71.20;;;;;;5008347;28;20030;-76
2021/07/25 11:28:38;;;;;;;6.72;4.70;;;21.70;71.20;;;;;;5007440;28;20112;-76
2021/07/25 11:31:04;;;;;;;6.47;4.60;;;21.70;70.70;;;;;;5010037;28;20042;-77
2021/07/25 11:33:45;;;;;;;5.88;5.07;;;21.70;72.30;;;;;;5002391;28;20022;-75
2021/07/25 11:36:12;;;;;;;5.22;4.45;;;21.60;70.70;;;;;;5003066;28;20025;-77
2021/07/25 11:38:38;;;;;;;6.22;4.10;;;21.50;72.40;;;;;;5007386;28;20589;-79
2021/07/25 11:41:06;;;;;;;5.63;4.85;;;21.50;71.90;;;;;;5003278;28;20513;-78
2021/07/25 11:43:53;;;;;;;5.10;3.95;;;21.40;70.60;;;;;;5007464;28;20050;-77
2021/07/25 11:46:38;;;;;;;5.35;4.10;;;21.70;74.10;;;;;;5007027;28;20498;-79
2021/07/25 11:49:11;;;;;;;6.90;4.85;;;22.30;74.00;;;;;;4996328;28;20578;-77
2021/07/25 11:51:44;;;;;;;6.47;4.70;;;22.40;68.90;;;;;;4997925;28;20113;-77
2021/07/25 11:54:11;;;;;;;5.50;4.28;;;22.20;69.90;;;;;;4998458;28;20034;-77
2021/07/25 11:56:36;;;;;;;4.85;4.35;;;22.30;70.50;;;;;;4998721;28;20041;-75
2021/07/25 11:59:08;;;;;;;6.15;4.30;;;22.20;69.50;;;;;;4994921;28;20030;-76
2021/07/25 12:01:36;;;;;;;6.28;4.75;;;21.80;75.60;;;;;;4993579;28;20034;-76
2021/07/25 12:04:18;;;;;;;5.90;4.57;;;21.00;84.60;;;;;;5004729;28;20033;-76
2021/07/25 12:06:43;;;;;;;5.68;4.63;;;20.10;88.10;;;;;;4993801;28;20026;-76
2021/07/25 12:09:10;;;;;;;6.25;4.35;;;20.00;87.50;;;;;;5001044;28;20045;-76
2021/07/25 12:11:38;;;;;;;6.93;4.50;;;20.10;87.20;;;;;;5000365;28;20085;-76
2021/07/25 12:14:04;;;;;;;5.13;3.83;;;20.30;84.80;;;;;;5000827;28;20034;-76
2021/07/25 12:16:46;;;;;;;5.30;3.95;;;20.40;84.10;;;;;;5004664;28;20026;-76
2021/07/25 12:19:13;;;;;;;4.40;4.00;;;20.80;82.60;;;;;;4997092;28;20030;-76
2021/07/25 12:21:39;;;;;;;6.97;4.13;;;21.00;81.60;;;;;;5005735;28;20644;-76
2021/07/25 12:24:23;;;;;;;4.78;4.20;;;21.30;78.70;;;;;;5001238;28;20030;-76
2021/07/25 12:26:48;;;;;;;5.60;3.75;;;21.60;79.40;;;;;;5004228;28;20034;-77
2021/07/25 12:29:44;;;;;;;5.32;4.32;;;21.70;77.70;;;;;;5007238;28;20080;-77
2021/07/25 12:32:30;;;;;;;5.35;3.85;;;21.60;75.80;;;;;;4997898;28;20042;-76
2021/07/25 12:35:22;;;;;;;4.78;3.85;;;21.50;76.50;;;;;;5012300;28;20109;-76
2021/07/25 12:37:54;;;;;;;5.45;4.20;;;21.50;75.80;;;;;;5026696;28;20083;-76
2021/07/25 12:40:28;;;;;;;5.60;4.15;;;21.60;77.50;;;;;;5020719;28;20403;-76
2021/07/25 12:42:57;;;;;;;7.32;4.85;;;21.60;76.40;;;;;;5024962;28;20510;-76
2021/07/25 12:45:33;;;;;;;8.02;6.38;;;21.70;75.10;;;;;;5017033;28;20038;-76
2021/07/25 12:48:20;;;;;;;8.60;6.22;;;21.80;75.30;;;;;;5014408;28;20036;-76
2021/07/25 12:53:36;;;;;;;8.75;6.45;;;22.20;74.90;;;;;;5019340;28;20038;-76
2021/07/25 12:56:04;;;;;;;12.68;7.93;;;22.40;74.50;;;;;;5020008;28;20029;-76
2021/07/25 12:58:33;;;;;;;7.25;5.30;;;22.30;72.40;;;;;;5012749;28;20550;-76